Time;durP1;ratioP1;P1;durP2;ratioP2;P2;SDS_P1;SDS_P2;PMS_P1;PMS_P2;Temp;Humidity;BMP_temperature;BMP_pressure;BME280_temperature;BME280_humidity;BME280_pressure;Samples;Min_cycle;Max_cycle;Signal;HPM_P1;HPM_P2
2022/07/30 00:02:05;;;;;;;13.48;7.00;;;;;;;15.29;100.00;101852.72;5204318;28;20037;-74
2022/07/30 00:04:36;;;;;;;16.92;8.10;;;;;;;15.34;100.00;101851.38;5190308;28;20028;-75
2022/07/30 00:07:07;;;;;;;20.52;8.25;;;;;;;15.29;100.00;101852.72;5204889;28;20386;-72
2022/07/30 00:09:38;;;;;;;21.05;9.00;;;;;;;15.24;100.00;101854.25;5204534;28;20025;-74
2022/07/30 00:12:09;;;;;;;16.27;8.38;;;;;;;15.17;100.00;101864.94;5204842;28;20014;-75
2022/07/30 00:14:40;;;;;;;20.92;10.23;;;;;;;15.11;100.00;101851.25;5203571;28;20018;-74
2022/07/30 00:17:10;;;;;;;31.27;8.98;;;;;;;15.03;100.00;101854.81;5204471;28;20026;-75
2022/07/30 00:19:41;;;;;;;23.42;8.80;;;;;;;14.95;100.00;101850.25;5202702;28;20491;-74
2022/07/30 00:22:11;;;;;;;18.13;8.60;;;;;;;14.87;100.00;101850.28;5200450;28;20486;-76
2022/07/30 00:24:42;;;;;;;20.48;9.95;;;;;;;14.81;100.00;101850.09;5203648;28;20177;-74
2022/07/30 00:27:13;;;;;;;33.50;9.52;;;;;;;14.73;100.00;101848.25;5204035;28;20025;-75
2022/07/30 00:29:43;;;;;;;18.67;9.35;;;;;;;14.64;100.00;101839.28;5203706;28;20033;-74
2022/07/30 00:32:14;;;;;;;18.20;9.57;;;;;;;14.55;100.00;101845.69;5203951;28;20018;-75
2022/07/30 00:34:44;;;;;;;23.25;9.85;;;;;;;14.48;100.00;101839.31;5203524;28;20502;-73
2022/07/30 00:37:15;;;;;;;18.60;10.18;;;;;;;14.44;100.00;101844.16;5204031;28;20040;-74
2022/07/30 00:39:45;;;;;;;11.18;7.03;;;;;;;14.40;100.00;101837.38;5203456;28;20509;-74
2022/07/30 00:42:22;;;;;;;15.48;8.07;;;;;;;14.30;100.00;101831.31;5186492;28;20364;-74
2022/07/30 00:44:52;;;;;;;16.67;8.23;;;;;;;14.19;100.00;101843.28;5203521;28;20029;-73
2022/07/30 00:47:23;;;;;;;12.30;8.35;;;;;;;14.09;100.00;101836.34;5203735;28;20025;-75
2022/07/30 00:49:53;;;;;;;19.23;9.50;;;;;;;14.02;100.00;101833.47;5203484;28;20071;-74
2022/07/30 00:52:24;;;;;;;16.95;8.73;;;;;;;14.00;100.00;101841.69;5203497;28;20464;-73
2022/07/30 00:54:54;;;;;;;13.05;7.75;;;;;;;13.96;100.00;101836.81;5203191;28;20029;-73
2022/07/30 00:57:26;;;;;;;22.55;9.25;;;;;;;13.88;100.00;101837.63;5196403;28;20063;-74
2022/07/30 00:59:57;;;;;;;23.88;10.80;;;;;;;13.80;100.00;101843.00;5203268;28;20037;-74
2022/07/30 01:02:28;;;;;;;24.38;12.57;;;;;;;13.75;100.00;101839.94;5197716;28;20475;-74
2022/07/30 01:04:58;;;;;;;23.95;13.32;;;;;;;13.72;100.00;101837.59;5199987;28;20017;-73
2022/07/30 01:07:29;;;;;;;26.35;12.43;;;;;;;13.73;100.00;101842.81;5203162;28;20484;-73
2022/07/30 01:10:10;;;;;;;18.42;11.00;;;;;;;13.70;100.00;101834.19;5202932;28;20029;-73
2022/07/30 01:12:51;;;;;;;18.42;10.55;;;;;;;13.63;100.00;101839.41;5203276;28;20064;-74
2022/07/30 01:15:42;;;;;;;22.83;11.68;;;;;;;13.53;100.00;101837.84;5201844;28;20021;-73
2022/07/30 01:19:47;;;;;;;23.08;12.23;;;;;;;13.43;100.00;101838.78;5203223;28;20458;-73
2022/07/30 01:21:40;;;;;;;20.80;12.30;;;;;;;13.35;100.00;101843.28;5196029;28;20431;-74
2022/07/30 01:24:39;;;;;;;18.10;9.87;;;;;;;13.27;100.00;101846.81;5202600;28;20040;-72
2022/07/30 01:27:25;;;;;;;27.23;13.15;;;;;;;13.25;100.00;101842.56;5203344;28;20029;-73
2022/07/30 01:29:58;;;;;;;28.80;14.43;;;;;;;13.28;100.00;101847.66;5202431;28;20025;-72
2022/07/30 01:32:32;;;;;;;26.90;13.38;;;;;;;13.32;100.00;101849.84;5202965;28;20100;-72
2022/07/30 01:35:05;;;;;;;23.65;11.50;;;;;;;13.36;100.00;101839.63;5201758;28;20083;-75
2022/07/30 01:37:38;;;;;;;17.13;10.05;;;;;;;13.29;100.00;101849.31;5202074;28;20033;-74
2022/07/30 01:40:09;;;;;;;23.75;11.32;;;;;;;13.20;100.00;101843.88;5201416;28;20025;-76
2022/07/30 01:42:40;;;;;;;17.45;10.90;;;;;;;13.16;100.00;101844.34;5203132;28;20049;-73
2022/07/30 01:45:14;;;;;;;25.08;14.20;;;;;;;13.18;100.00;101840.47;5202429;28;20037;-75
2022/07/30 01:47:45;;;;;;;26.80;12.93;;;;;;;13.20;100.00;101827.72;5203126;28;20368;-73
2022/07/30 01:50:17;;;;;;;20.45;11.40;;;;;;;13.20;100.00;101837.63;5202872;28;20049;-72
2022/07/30 01:52:51;;;;;;;23.77;12.23;;;;;;;13.23;100.00;101839.19;5202781;28;20060;-73
2022/07/30 01:55:29;;;;;;;23.98;13.82;;;;;;;13.20;100.00;101826.84;5202452;28;20053;-73
2022/07/30 01:58:02;;;;;;;30.63;12.63;;;;;;;13.15;100.00;101831.84;5202097;28;20029;-72
2022/07/30 02:00:36;;;;;;;24.10;12.38;;;;;;;13.11;100.00;101836.75;5202519;28;20479;-72
2022/07/30 02:03:09;;;;;;;22.85;11.95;;;;;;;13.09;100.00;101838.72;5198375;28;20037;-73
2022/07/30 02:05:43;;;;;;;20.85;11.90;;;;;;;13.13;100.00;101839.25;5202667;28;20375;-73
2022/07/30 02:08:26;;;;;;;21.10;13.35;;;;;;;13.15;100.00;101831.84;5203057;28;20052;-72
2022/07/30 02:11:03;;;;;;;32.75;13.88;;;;;;;13.14;100.00;101831.00;5203015;28;20398;-72
2022/07/30 02:13:57;;;;;;;31.20;14.45;;;;;;;13.10;100.00;101836.88;5202647;28;20079;-72
2022/07/30 02:16:35;;;;;;;25.52;12.82;;;;;;;13.03;100.00;101839.38;5188561;28;20052;-72
2022/07/30 02:19:22;;;;;;;26.20;13.20;;;;;;;12.96;100.00;101852.63;5202929;28;20033;-72
2022/07/30 02:22:11;;;;;;;30.85;15.15;;;;;;;12.98;100.00;101852.47;5204158;28;20031;-72
2022/07/30 02:24:43;;;;;;;26.52;13.70;;;;;;;12.98;100.00;101846.25;5194027;28;20021;-73
2022/07/30 02:27:17;;;;;;;27.40;14.18;;;;;;;12.95;100.00;101850.06;5206538;28;20437;-73
2022/07/30 02:29:49;;;;;;;28.45;15.00;;;;;;;12.89;100.00;101848.03;5205098;28;20025;-72
2022/07/30 02:32:22;;;;;;;34.13;16.00;;;;;;;12.81;100.00;101848.81;5206240;28;20122;-73
2022/07/30 02:34:59;;;;;;;26.90;13.93;;;;;;;12.76;100.00;101851.13;5206012;28;20112;-72
2022/07/30 02:37:31;;;;;;;29.00;14.48;;;;;;;12.76;100.00;101850.28;5202264;28;20039;-72
2022/07/30 02:40:03;;;;;;;34.15;15.65;;;;;;;12.77;100.00;101846.59;5206187;28;20108;-73
2022/07/30 02:42:35;;;;;;;28.30;15.55;;;;;;;12.75;100.00;101851.25;5206556;28;20034;-72
2022/07/30 02:45:07;;;;;;;27.35;15.95;;;;;;;12.72;100.00;101854.28;5205623;28;20130;-72
2022/07/30 02:47:39;;;;;;;28.60;14.82;;;;;;;12.68;100.00;101853.75;5206296;28;20108;-73
2022/07/30 02:50:11;;;;;;;35.17;17.45;;;;;;;12.65;100.00;101854.91;5206155;28;20025;-75
2022/07/30 02:52:43;;;;;;;33.55;17.08;;;;;;;12.63;100.00;101859.59;5206307;28;20029;-73
2022/07/30 02:55:16;;;;;;;35.97;18.23;;;;;;;12.65;100.00;101867.50;5204906;28;20021;-73
2022/07/30 02:57:49;;;;;;;41.88;20.98;;;;;;;12.68;100.00;101865.34;5200039;28;20144;-73
2022/07/30 03:00:21;;;;;;;39.97;19.85;;;;;;;12.68;100.00;101864.53;5205804;28;20419;-73
2022/07/30 03:02:54;;;;;;;42.70;18.15;;;;;;;12.65;100.00;101859.44;5204645;28;20021;-73
2022/07/30 03:05:26;;;;;;;37.63;18.05;;;;;;;12.61;100.00;101856.22;5206002;28;20152;-73
2022/07/30 03:07:58;;;;;;;33.88;18.42;;;;;;;12.60;100.00;101859.06;5205435;28;20701;-73
2022/07/30 03:10:30;;;;;;;44.92;18.13;;;;;;;12.57;100.00;101857.53;5204536;28;20029;-73
2022/07/30 03:13:04;;;;;;;40.88;19.42;;;;;;;12.54;100.00;101854.28;5205787;28;20056;-73
2022/07/30 03:15:36;;;;;;;31.60;16.33;;;;;;;12.51;100.00;101851.94;5204059;28;20467;-74
2022/07/30 03:18:12;;;;;;;34.80;16.48;;;;;;;12.48;100.00;101857.59;5205049;28;20056;-74
2022/07/30 03:20:46;;;;;;;29.23;15.95;;;;;;;12.43;100.00;101855.38;5202376;28;20029;-73
2022/07/30 03:23:18;;;;;;;28.77;14.27;;;;;;;12.42;100.00;101861.75;5205613;28;20476;-74
2022/07/30 03:26:07;;;;;;;34.97;18.23;;;;;;;12.36;100.00;101857.84;5205625;28;20487;-73
2022/07/30 03:28:39;;;;;;;33.95;17.95;;;;;;;12.31;100.00;101853.94;5204710;28;20547;-73
2022/07/30 03:31:10;;;;;;;32.92;18.90;;;;;;;12.24;100.00;101856.34;5205384;28;20026;-73
2022/07/30 03:33:42;;;;;;;32.25;17.67;;;;;;;12.18;100.00;101855.13;5206119;28;20032;-73
2022/07/30 03:36:13;;;;;;;33.65;16.60;;;;;;;12.15;100.00;101851.91;5206345;28;20108;-73
2022/07/30 03:38:45;;;;;;;38.40;17.17;;;;;;;12.11;100.00;101853.22;5204998;28;20037;-73
2022/07/30 03:41:16;;;;;;;38.75;19.45;;;;;;;12.06;100.00;101853.66;5204979;28;20526;-74
2022/07/30 03:43:48;;;;;;;103.65;19.48;;;;;;;12.01;100.00;101866.72;5204967;28;20029;-74
2022/07/30 03:46:19;;;;;;;31.80;16.15;;;;;;;11.93;100.00;101861.25;5200487;28;20434;-74
2022/07/30 03:48:51;;;;;;;42.25;18.35;;;;;;;11.88;100.00;101863.53;5204307;28;20052;-73
2022/07/30 03:51:22;;;;;;;32.25;16.33;;;;;;;11.84;100.00;101854.06;5204324;28;20067;-74
2022/07/30 03:53:53;;;;;;;27.55;14.25;;;;;;;11.82;100.00;101861.44;5203299;28;20033;-74
2022/07/30 03:56:24;;;;;;;22.08;12.63;;;;;;;11.79;100.00;101856.31;5203785;28;20364;-73
2022/07/30 03:58:54;;;;;;;27.35;13.10;;;;;;;11.76;100.00;101868.25;5204557;28;20025;-73
2022/07/30 04:01:26;;;;;;;28.15;14.55;;;;;;;11.73;100.00;101873.06;5204613;28;20395;-73
2022/07/30 04:04:07;;;;;;;26.55;15.25;;;;;;;11.65;100.00;101874.66;5200314;28;20098;-73
2022/07/30 04:06:38;;;;;;;28.33;13.77;;;;;;;11.66;100.00;101872.81;5204533;28;20022;-73
2022/07/30 04:09:10;;;;;;;31.60;14.77;;;;;;;11.73;100.00;101876.59;5204221;28;20083;-73
2022/07/30 04:11:41;;;;;;;35.60;14.57;;;;;;;11.79;100.00;101867.09;5204570;28;20510;-73
2022/07/30 04:14:11;;;;;;;26.20;14.57;;;;;;;11.78;100.00;101874.31;5203781;28;20030;-73
2022/07/30 04:16:49;;;;;;;33.58;15.05;;;;;;;11.76;100.00;101884.38;5204287;28;20029;-72
2022/07/30 04:19:25;;;;;;;31.80;14.45;;;;;;;11.76;100.00;101888.91;5204093;28;20021;-72
2022/07/30 04:21:57;;;;;;;32.28;16.13;;;;;;;11.80;100.00;101896.53;5204449;28;20414;-72
2022/07/30 04:24:29;;;;;;;29.40;14.48;;;;;;;11.84;100.00;101897.09;5203777;28;20067;-72
2022/07/30 04:27:01;;;;;;;29.38;15.07;;;;;;;11.91;100.00;101900.88;5202257;28;20291;-72
2022/07/30 04:29:32;;;;;;;27.25;14.13;;;;;;;11.93;100.00;101907.78;5204152;28;20025;-72
2022/07/30 04:32:03;;;;;;;35.25;16.48;;;;;;;11.95;100.00;101904.97;5203885;28;20040;-73
2022/07/30 04:34:34;;;;;;;38.33;17.25;;;;;;;11.98;100.00;101918.09;5203465;28;20075;-73
2022/07/30 04:37:04;;;;;;;30.73;16.23;;;;;;;12.00;100.00;101910.75;5203687;28;20391;-73
2022/07/30 04:39:35;;;;;;;28.77;16.70;;;;;;;12.04;100.00;101906.75;5203410;28;20116;-73
2022/07/30 04:42:05;;;;;;;30.00;16.80;;;;;;;12.08;100.00;101902.75;5203662;28;20142;-73
2022/07/30 04:44:36;;;;;;;35.63;17.60;;;;;;;12.12;100.00;101904.16;5202570;28;20352;-73
2022/07/30 04:47:07;;;;;;;27.27;13.95;;;;;;;12.16;100.00;101902.88;5199798;28;20033;-74
2022/07/30 04:49:39;;;;;;;31.38;13.70;;;;;;;12.18;100.00;101906.25;5203322;28;20036;-73
2022/07/30 04:52:11;;;;;;;32.50;15.75;;;;;;;12.18;100.00;101906.25;5203715;28;20051;-73
2022/07/30 04:54:48;;;;;;;26.70;15.02;;;;;;;12.22;100.00;101906.78;5202899;28;20029;-73
2022/07/30 04:57:19;;;;;;;30.52;15.88;;;;;;;12.28;100.00;101908.03;5203045;28;20033;-74
2022/07/30 04:59:50;;;;;;;35.33;17.55;;;;;;;12.33;100.00;101911.94;5203287;28;20028;-74
2022/07/30 05:02:24;;;;;;;34.75;16.90;;;;;;;12.40;100.00;101909.53;5201615;28;20033;-72
2022/07/30 05:04:55;;;;;;;35.40;18.65;;;;;;;12.50;100.00;101914.81;5189895;28;20021;-72
2022/07/30 05:07:26;;;;;;;31.33;16.75;;;;;;;12.56;100.00;101909.69;5203266;28;20033;-72
2022/07/30 05:09:57;;;;;;;31.30;16.10;;;;;;;12.60;100.00;101910.19;5203444;28;20021;-72
2022/07/30 05:12:45;;;;;;;27.38;15.90;;;;;;;12.62;100.00;101908.22;5203383;28;20033;-72
2022/07/30 05:15:16;;;;;;;33.33;15.63;;;;;;;12.62;100.00;101909.06;5202877;28;20026;-73
2022/07/30 05:17:47;;;;;;;33.10;16.17;;;;;;;12.61;100.00;101917.31;5203418;28;20376;-72
2022/07/30 05:20:17;;;;;;;42.72;17.63;;;;;;;12.63;100.00;101916.13;5202881;28;20029;-73
2022/07/30 05:22:48;;;;;;;43.42;19.67;;;;;;;12.68;100.00;101919.22;5203320;28;20022;-72
2022/07/30 05:25:18;;;;;;;35.47;19.48;;;;;;;12.77;100.00;101922.81;5202103;28;20108;-72
2022/07/30 05:27:50;;;;;;;37.88;20.33;;;;;;;12.87;100.00;101930.81;5203036;28;20480;-72
2022/07/30 05:30:20;;;;;;;39.53;19.35;;;;;;;12.99;100.00;101937.66;5203172;28;20486;-72
2022/07/30 05:32:51;;;;;;;44.92;21.48;;;;;;;13.10;100.00;101921.25;5203382;28;20018;-72
2022/07/30 05:35:22;;;;;;;42.47;22.60;;;;;;;13.25;100.00;101926.09;5202343;28;20487;-72
2022/07/30 05:37:52;;;;;;;41.95;22.90;;;;;;;13.35;100.00;101924.97;5202662;28;20074;-73
2022/07/30 05:40:23;;;;;;;49.05;25.05;;;;;;;13.52;100.00;101928.66;5202882;28;20113;-73
2022/07/30 05:42:53;;;;;;;51.33;24.58;;;;;;;13.68;100.00;101927.91;5203197;28;20414;-71
2022/07/30 05:45:24;;;;;;;48.50;25.42;;;;;;;13.86;100.00;101931.38;5202503;28;20483;-71
2022/07/30 05:47:54;;;;;;;46.92;24.95;;;;;;;14.04;100.00;101933.13;5192842;28;20529;-72
2022/07/30 05:50:25;;;;;;;56.05;25.35;;;;;;;14.22;100.00;101929.31;5202216;28;20026;-72
2022/07/30 05:52:57;;;;;;;54.08;25.27;;;;;;;14.37;100.00;101937.63;5201915;28;20033;-71
2022/07/30 05:55:27;;;;;;;45.53;23.52;;;;;;;14.54;100.00;101943.09;5201958;28;20198;-71
2022/07/30 05:57:58;;;;;;;52.17;25.77;;;;;;;14.71;100.00;101942.97;5203456;28;20074;-71
2022/07/30 06:00:28;;;;;;;49.55;23.35;;;;;;;14.97;100.00;101944.66;5207394;28;20049;-73
2022/07/30 06:02:59;;;;;;;46.78;23.25;;;;;;;15.26;100.00;101942.31;5189571;28;20505;-72
2022/07/30 06:05:31;;;;;;;34.00;19.60;;;;;;;16.03;100.00;101939.94;5197395;28;20404;-72
2022/07/30 06:08:01;;;;;;;33.05;20.05;;;;;;;16.73;100.00;101941.78;5205884;28;20064;-72
2022/07/30 06:10:32;;;;;;;24.92;15.73;;;;;;;17.58;100.00;101940.69;5205560;28;20056;-72
2022/07/30 06:13:03;;;;;;;22.58;13.07;;;;;;;18.41;100.00;101925.09;5204554;28;20483;-72
2022/07/30 06:15:33;;;;;;;22.10;13.07;;;;;;;19.13;100.00;101925.00;5204348;28;20021;-72
2022/07/30 06:18:04;;;;;;;24.13;14.55;;;;;;;19.81;100.00;101934.28;5205226;28;20026;-72
2022/07/30 06:20:34;;;;;;;20.60;11.20;;;;;;;20.36;100.00;101937.88;5204789;28;20420;-72
2022/07/30 06:23:05;;;;;;;13.73;10.07;;;;;;;20.73;100.00;101941.13;5205322;28;20032;-73
2022/07/30 06:25:36;;;;;;;20.08;13.20;;;;;;;20.85;100.00;101946.84;5203701;28;20118;-73
2022/07/30 06:28:06;;;;;;;22.77;13.15;;;;;;;20.84;100.00;101945.16;5205221;28;20021;-72
2022/07/30 06:30:37;;;;;;;14.43;10.10;;;;;;;21.31;100.00;101949.63;5204968;28;20328;-72
2022/07/30 06:33:07;;;;;;;22.08;12.75;;;;;;;21.59;100.00;101946.66;5204831;28;20029;-73
2022/07/30 06:35:38;;;;;;;20.10;11.98;;;;;;;21.77;100.00;101945.97;5204392;28;20340;-72
2022/07/30 06:38:08;;;;;;;24.60;12.10;;;;;;;21.90;100.00;101948.69;5204703;28;20549;-73
2022/07/30 06:40:39;;;;;;;25.15;12.98;;;;;;;22.16;100.00;101950.50;5204639;28;20254;-72
2022/07/30 06:43:09;;;;;;;17.92;10.45;;;;;;;22.77;100.00;101949.13;5204378;28;20021;-72
2022/07/30 06:45:40;;;;;;;19.58;11.57;;;;;;;23.07;100.00;101949.38;5204262;28;20075;-73
2022/07/30 06:48:10;;;;;;;15.50;7.82;;;;;;;23.80;100.00;101959.69;5194626;28;20060;-72
2022/07/30 06:50:41;;;;;;;24.27;11.18;;;;;;;23.70;100.00;101956.63;5204563;28;20025;-72
2022/07/30 06:53:11;;;;;;;18.10;11.80;;;;;;;23.33;100.00;101947.47;5204272;28;20802;-72
2022/07/30 06:55:42;;;;;;;18.40;10.65;;;;;;;23.51;100.00;101955.72;5201427;28;20379;-73
2022/07/30 06:58:12;;;;;;;14.13;6.55;;;;;;;25.02;100.00;101954.06;5203330;28;20022;-73
2022/07/30 07:00:43;;;;;;;12.82;7.25;;;;;;;24.57;100.00;101956.44;5204411;28;20025;-73
2022/07/30 07:03:14;;;;;;;12.18;7.72;;;;;;;24.56;100.00;101954.78;5201498;28;20031;-72
2022/07/30 07:05:44;;;;;;;9.13;5.60;;;;;;;24.93;100.00;101949.97;5203709;28;20438;-73
2022/07/30 07:08:15;;;;;;;13.02;7.18;;;;;;;25.36;100.00;101965.38;5203894;28;20097;-73
2022/07/30 07:10:45;;;;;;;14.75;8.05;;;;;;;25.43;100.00;101964.16;5204419;28;20120;-71
2022/07/30 07:13:16;;;;;;;8.50;5.88;;;;;;;25.95;100.00;101964.25;5203761;28;20025;-70
2022/07/30 07:15:46;;;;;;;16.23;6.93;;;;;;;25.47;100.00;101959.03;5203000;28;20330;-71
2022/07/30 07:18:17;;;;;;;16.25;8.13;;;;;;;24.80;100.00;101960.09;5204219;28;20033;-71
2022/07/30 07:20:47;;;;;;;13.88;6.80;;;;;;;24.82;100.00;101962.59;5203764;28;20052;-71
2022/07/30 07:23:18;;;;;;;11.18;4.72;;;;;;;26.04;100.00;101965.56;5203472;28;20030;-72
2022/07/30 07:25:48;;;;;;;11.93;5.20;;;;;;;26.39;100.00;101969.31;5203308;28;20030;-72
2022/07/30 07:28:19;;;;;;;10.13;4.30;;;;;;;26.26;100.00;101965.78;5204057;28;20035;-71
2022/07/30 07:30:49;;;;;;;12.60;6.18;;;;;;;26.42;100.00;101960.56;5202679;28;20059;-71
2022/07/30 07:33:20;;;;;;;11.27;5.25;;;;;;;26.65;99.61;101962.41;5203410;28;20079;-71
2022/07/30 07:35:53;;;;;;;7.70;4.35;;;;;;;26.43;100.00;101965.84;5203257;28;20028;-71
2022/07/30 07:38:23;;;;;;;13.68;5.53;;;;;;;26.01;100.00;101971.56;5203332;28;20107;-71
2022/07/30 07:40:54;;;;;;;10.18;5.60;;;;;;;26.21;100.00;101962.09;5203193;28;20107;-71
2022/07/30 07:43:25;;;;;;;10.75;6.15;;;;;;;25.72;100.00;101953.28;5203311;28;20029;-70
2022/07/30 07:45:57;;;;;;;10.93;5.57;;;;;;;26.92;95.57;101963.47;5202648;28;20495;-72
2022/07/30 07:48:28;;;;;;;11.07;5.43;;;;;;;26.92;94.54;101966.22;5193010;28;20538;-71
2022/07/30 07:50:58;;;;;;;7.45;4.85;;;;;;;26.41;97.01;101968.00;5203048;28;20155;-72
2022/07/30 07:53:29;;;;;;;7.03;5.07;;;;;;;26.48;95.62;101968.69;5202694;28;20041;-70
2022/07/30 07:55:59;;;;;;;10.05;4.63;;;;;;;27.01;87.08;101967.47;5198357;28;20018;-70
2022/07/30 07:58:30;;;;;;;9.27;5.78;;;;;;;26.78;87.53;101965.69;5203215;28;20034;-70
2022/07/30 08:01:00;;;;;;;9.43;4.90;;;;;;;26.54;89.94;101962.22;5203344;28;20029;-70
2022/07/30 08:03:31;;;;;;;9.88;4.72;;;;;;;26.63;89.87;101964.56;5198972;28;20048;-72
2022/07/30 08:06:02;;;;;;;7.38;5.15;;;;;;;26.29;100.00;101964.44;5202331;28;20068;-72
2022/07/30 08:08:32;;;;;;;7.63;4.50;;;;;;;26.46;99.13;101953.53;5202985;28;20052;-72
2022/07/30 08:11:05;;;;;;;11.02;4.65;;;;;;;26.72;96.13;101952.09;5203097;28;20021;-72
2022/07/30 08:13:35;;;;;;;8.55;4.63;;;;;;;27.02;91.63;101951.78;5202771;28;20022;-72
2022/07/30 08:16:09;;;;;;;8.77;4.50;;;;;;;27.89;80.31;101951.22;5201546;28;20024;-70
2022/07/30 08:18:39;;;;;;;8.38;4.38;;;;;;;27.99;77.65;101948.59;5202103;28;20041;-70
2022/07/30 08:21:10;;;;;;;10.57;5.05;;;;;;;27.91;78.18;101949.03;5202414;28;20022;-70
2022/07/30 08:23:40;;;;;;;9.98;4.65;;;;;;;28.03;77.22;101955.28;5202460;28;20376;-70
2022/07/30 08:26:11;;;;;;;9.63;4.78;;;;;;;27.50;82.14;101953.94;5201939;28;20426;-70
2022/07/30 08:28:42;;;;;;;9.30;3.63;;;;;;;27.85;78.02;101955.59;5201838;28;20516;-71
2022/07/30 08:31:12;;;;;;;9.38;4.40;;;;;;;27.63;78.06;101945.34;5202526;28;20017;-71
2022/07/30 08:33:43;;;;;;;7.40;3.45;;;;;;;27.75;72.90;101942.50;5202266;28;20034;-71
2022/07/30 08:36:13;;;;;;;9.80;3.90;;;;;;;27.76;73.03;101943.31;5201724;28;20021;-71
2022/07/30 08:38:44;;;;;;;9.35;3.70;;;;;;;27.71;70.16;101943.25;5202205;28;20029;-71
2022/07/30 08:41:18;;;;;;;10.10;3.58;;;;;;;27.76;70.78;101935.06;5202367;28;20053;-70
2022/07/30 08:43:49;;;;;;;10.25;3.53;;;;;;;27.57;74.15;101932.56;5200887;28;20071;-71
2022/07/30 08:46:23;;;;;;;7.45;4.00;;;;;;;27.39;76.85;101930.09;5201419;28;20060;-71
2022/07/30 08:48:54;;;;;;;11.53;4.73;;;;;;;27.39;73.27;101923.75;5193799;28;20056;-71
2022/07/30 08:51:25;;;;;;;11.50;4.50;;;;;;;27.00;74.60;101929.16;5201394;28;20664;-71
2022/07/30 08:53:56;;;;;;;7.38;4.20;;;;;;;27.36;72.79;101934.19;5202612;28;20025;-71
2022/07/30 08:56:27;;;;;;;9.57;4.70;;;;;;;27.46;71.84;101936.28;5196575;28;20017;-71
2022/07/30 08:59:00;;;;;;;9.48;4.50;;;;;;;27.74;71.87;101935.31;5202515;28;20068;-71
2022/07/30 09:01:30;;;;;;;6.80;3.45;;;;;;;28.41;67.95;101947.19;5201838;28;20359;-71
2022/07/30 09:04:01;;;;;;;6.47;3.58;;;;;;;28.54;67.66;101942.09;5199442;28;20087;-71
2022/07/30 09:06:32;;;;;;;13.07;4.60;;;;;;;28.69;65.52;101946.94;5201415;28;20103;-71
2022/07/30 09:09:02;;;;;;;9.60;4.07;;;;;;;28.67;67.46;101945.53;5200701;28;20491;-71
2022/07/30 09:11:34;;;;;;;10.90;4.22;;;;;;;28.46;68.12;101944.47;5201933;28;20033;-71
2022/07/30 09:14:08;;;;;;;9.02;3.95;;;;;;;28.07;72.35;101953.69;5201719;28;20577;-71
2022/07/30 09:16:39;;;;;;;8.35;3.72;;;;;;;28.64;66.91;101952.41;5201268;28;20821;-71
2022/07/30 09:19:27;;;;;;;9.75;4.72;;;;;;;28.17;67.97;101954.91;5201612;28;20033;-71
2022/07/30 09:22:00;;;;;;;8.88;4.05;;;;;;;28.32;70.70;101955.09;5201105;28;20147;-71
2022/07/30 09:24:41;;;;;;;12.77;3.80;;;;;;;28.50;72.05;101952.00;5201095;28;20025;-71
2022/07/30 09:27:12;;;;;;;9.20;4.10;;;;;;;29.31;62.72;101945.56;5201453;28;20056;-71
2022/07/30 09:29:43;;;;;;;15.48;4.40;;;;;;;28.70;68.44;101940.31;5201818;28;20021;-71
2022/07/30 09:32:14;;;;;;;11.32;4.30;;;;;;;28.50;67.54;101942.88;5201169;28;20538;-71
2022/07/30 09:34:44;;;;;;;9.82;4.78;;;;;;;29.31;62.65;101940.03;5201169;28;20086;-71
2022/07/30 09:37:17;;;;;;;7.55;3.60;;;;;;;28.63;67.53;101940.53;5201217;28;20037;-71
2022/07/30 09:39:48;;;;;;;7.95;4.53;;;;;;;28.38;71.14;101940.28;5201572;28;20502;-71
2022/07/30 09:42:21;;;;;;;9.90;4.55;;;;;;;28.20;68.22;101938.66;5201536;28;20025;-71
2022/07/30 09:45:03;;;;;;;13.15;4.32;;;;;;;28.25;66.28;101935.13;5200792;28;20104;-71
2022/07/30 09:47:36;;;;;;;4.88;3.33;;;;;;;28.96;64.01;101935.06;5192773;28;20026;-71
2022/07/30 09:50:11;;;;;;;10.02;4.35;;;;;;;28.91;63.12;101936.63;5200167;28;20368;-71
2022/07/30 09:52:43;;;;;;;6.45;3.78;;;;;;;29.16;62.81;101930.53;5200773;28;20419;-71
2022/07/30 09:55:27;;;;;;;9.98;4.35;;;;;;;29.77;57.38;101930.13;5200977;28;20040;-71
2022/07/30 09:58:13;;;;;;;7.72;4.03;;;;;;;29.34;57.71;101931.22;5198438;28;20074;-71
2022/07/30 10:00:44;;;;;;;8.55;4.07;;;;;;;28.71;60.64;101927.34;5200987;28;20021;-71
2022/07/30 10:03:20;;;;;;;6.55;3.67;;;;;;;28.13;64.09;101925.06;5199750;28;20025;-71
2022/07/30 10:05:52;;;;;;;11.85;4.30;;;;;;;28.10;63.01;101922.81;5200662;28;20029;-71
2022/07/30 10:09:00;;;;;;;10.23;3.97;;;;;;;28.54;63.91;101925.53;5201028;28;20063;-71
2022/07/30 10:11:31;;;;;;;12.07;3.70;;;;;;;29.20;62.89;101928.06;5201277;28;20161;-71
2022/07/30 10:14:02;;;;;;;5.40;2.90;;;;;;;29.41;60.39;101934.56;5200946;28;20021;-71
2022/07/30 10:16:33;;;;;;;6.75;3.42;;;;;;;28.82;61.24;101934.66;5200458;28;20067;-71
2022/07/30 10:19:04;;;;;;;6.47;3.40;;;;;;;28.60;59.12;101935.53;5200753;28;20435;-71
2022/07/30 10:21:34;;;;;;;6.85;3.08;;;;;;;28.16;62.75;101929.22;5200486;28;20021;-71
2022/07/30 10:24:05;;;;;;;6.88;3.20;;;;;;;27.95;61.76;101922.63;5201031;28;20026;-71
2022/07/30 10:26:36;;;;;;;4.57;2.83;;;;;;;27.97;64.09;101927.91;5200466;28;20021;-71
2022/07/30 10:29:07;;;;;;;11.80;3.95;;;;;;;28.13;60.05;101925.06;5201255;28;20025;-71
2022/07/30 10:31:38;;;;;;;11.23;3.63;;;;;;;27.48;65.84;101931.34;5200483;28;20502;-71
2022/07/30 10:34:10;;;;;;;10.15;3.80;;;;;;;27.17;65.88;101921.78;5200523;28;20039;-70
2022/07/30 10:36:44;;;;;;;10.55;4.07;;;;;;;27.66;64.51;101927.44;5201023;28;20056;-71
2022/07/30 10:39:20;;;;;;;12.85;3.88;;;;;;;27.34;65.58;101933.59;5201200;28;20025;-71
2022/07/30 10:42:29;;;;;;;10.82;4.00;;;;;;;27.35;66.69;101929.75;5200254;28;20052;-73
2022/07/30 10:45:18;;;;;;;6.90;3.92;;;;;;;27.62;64.99;101937.34;5204109;28;20033;-73
2022/07/30 10:47:51;;;;;;;6.90;3.58;;;;;;;27.68;66.47;101939.06;5194317;28;20022;-73
2022/07/30 10:50:25;;;;;;;5.32;2.67;;;;;;;27.95;66.11;101936.41;5204190;28;20075;-73
2022/07/30 10:52:59;;;;;;;4.17;2.97;;;;;;;28.49;61.98;101932.94;5204664;28;20495;-73
2022/07/30 10:55:34;;;;;;;7.93;3.38;;;;;;;28.84;60.67;101935.22;5203482;28;20468;-73
2022/07/30 10:58:04;;;;;;;14.20;3.75;;;;;;;28.89;60.72;101929.72;5202507;28;20125;-73
2022/07/30 11:00:55;;;;;;;6.90;3.70;;;;;;;29.13;56.80;101922.78;5204528;28;20069;-73
2022/07/30 11:03:28;;;;;;;7.72;4.00;;;;;;;28.93;59.12;101916.25;5202478;28;20029;-73
2022/07/30 11:06:18;;;;;;;10.05;3.63;;;;;;;28.77;59.29;101923.56;5204003;28;20055;-73
2022/07/30 11:08:49;;;;;;;6.03;3.50;;;;;;;28.54;60.43;101922.78;5202793;28;20033;-73
2022/07/30 11:11:19;;;;;;;13.68;3.85;;;;;;;28.70;59.41;101922.94;5204207;28;20060;-73
2022/07/30 11:14:05;;;;;;;7.38;3.30;;;;;;;28.46;61.00;101920.47;5204156;28;20049;-73
2022/07/30 11:16:36;;;;;;;8.77;3.42;;;;;;;28.53;59.32;101914.75;5203702;28;20128;-73
2022/07/30 11:19:08;;;;;;;9.98;3.40;;;;;;;28.37;60.58;101916.53;5204172;28;20116;-74
2022/07/30 11:21:38;;;;;;;9.00;3.00;;;;;;;28.20;62.00;101907.47;5203304;28;20019;-72
2022/07/30 11:24:46;;;;;;;4.65;2.30;;;;;;;28.62;65.39;101904.94;5203457;28;20033;-73
2022/07/30 11:27:54;;;;;;;5.63;2.65;;;;;;;29.31;58.61;101895.81;5204348;28;20048;-73
2022/07/30 11:30:40;;;;;;;11.80;2.80;;;;;;;28.70;59.86;101900.84;5204039;28;20040;-71
2022/07/30 11:33:10;;;;;;;7.63;2.50;;;;;;;28.76;60.71;101906.13;5203535;28;20025;-71
2022/07/30 11:35:42;;;;;;;5.72;2.55;;;;;;;28.77;60.12;101902.31;5203042;28;20072;-71
2022/07/30 11:38:16;;;;;;;5.70;2.80;;;;;;;28.70;57.71;101900.84;5202972;28;20671;-71